Time,TemperatureF,DewpointF,PressureIn,WindDirection,WindDirectionDegrees,WindSpeedMPH,WindSpeedGustMPH,Humidity,HourlyPrecipIn,Conditions,Clouds,dailyrainin,SolarRadiationWatts/m^2,SoftwareType,DateUTC
2013-09-30 00:02:00,63.0,63.0,-100.00,West,262,0.0,1.0,100,0.00,,,0.79,0.000000,,2013-09-30 05:02:00,
2013-09-30 00:43:00,63.0,63.0,-100.00,SE,139,0.0,2.0,100,0.00,,,0.79,0.000000,,2013-09-30 05:43:00,
2013-09-30 00:52:00,63.0,63.0,-100.00,SE,139,0.0,2.0,100,0.00,,,0.79,0.000000,,2013-09-30 05:52:00,
2013-09-30 01:03:00,63.0,63.0,-100.00,SE,139,0.0,2.0,100,0.00,,,0.79,0.000000,,2013-09-30 06:03:00,
2013-09-30 01:42:00,63.0,63.0,-100.00,ESE,120,1.0,2.0,100,0.00,,,0.79,0.000000,,2013-09-30 06:42:00,
2013-09-30 01:52:00,63.0,63.0,-100.00,ESE,120,1.0,2.0,100,0.00,,,0.79,0.000000,,2013-09-30 06:52:00,
2013-09-30 02:01:00,63.0,63.0,-100.00,ESE,120,1.0,2.0,100,0.00,,,0.79,0.000000,,2013-09-30 07:01:00,
2013-09-30 02:42:00,63.0,63.0,-100.00,ESE,114,0.0,2.0,100,0.00,,,0.79,0.000000,,2013-09-30 07:42:00,
2013-09-30 02:53:00,63.0,63.0,-100.00,ESE,114,0.0,2.0,100,0.00,,,0.79,0.000000,,2013-09-30 07:53:00,
2013-09-30 03:02:00,63.0,63.0,-100.00,ESE,114,0.0,2.0,100,0.00,,,0.79,0.000000,,2013-09-30 08:02:00,
2013-09-30 03:42:00,63.0,63.0,-100.00,SE,139,0.0,3.0,100,0.00,,,-99.99,0.000000,,2013-09-30 08:42:00,
2013-09-30 03:52:00,63.0,63.0,-100.00,SE,139,0.0,3.0,100,0.00,,,-99.99,0.000000,,2013-09-30 08:52:00,
2013-09-30 04:02:00,63.0,63.0,-100.00,SE,139,0.0,3.0,100,0.00,,,-99.99,0.000000,,2013-09-30 09:02:00,
2013-09-30 04:42:00,63.0,63.0,-100.00,ESE,120,0.0,4.0,100,0.00,,,0.79,0.000000,,2013-09-30 09:42:00,
2013-09-30 04:54:00,63.0,63.0,-100.00,ESE,120,0.0,4.0,100,0.00,,,0.79,0.000000,,2013-09-30 09:54:00,
2013-09-30 05:03:00,63.0,63.0,-100.00,ESE,120,0.0,4.0,100,0.00,,,0.79,0.000000,,2013-09-30 10:03:00,
2013-09-30 05:43:00,63.0,63.0,-100.00,East,95,0.0,4.0,100,0.00,,,0.76,0.000000,,2013-09-30 10:43:00,
2013-09-30 05:53:00,63.0,63.0,-100.00,East,95,0.0,4.0,100,0.00,,,0.76,0.000000,,2013-09-30 10:53:00,
2013-09-30 06:03:00,63.0,63.0,-100.00,East,95,0.0,4.0,100,0.00,,,0.76,0.000000,,2013-09-30 11:03:00,
2013-09-30 06:43:00,64.0,64.0,-100.00,SSE,148,1.0,4.0,100,0.01,,,0.48,0.000000,,2013-09-30 11:43:00,
2013-09-30 06:52:00,64.0,64.0,-100.00,SSE,148,1.0,4.0,100,0.01,,,0.48,0.000000,,2013-09-30 11:52:00,
2013-09-30 07:02:00,64.0,64.0,-100.00,SSE,148,1.0,4.0,100,0.01,,,0.48,0.000000,,2013-09-30 12:02:00,
2013-09-30 07:42:00,64.0,64.0,-100.00,SE,134,1.0,3.0,100,0.00,,,0.46,1.000000,,2013-09-30 12:42:00,
2013-09-30 07:52:00,64.0,64.0,-100.00,SE,134,1.0,3.0,100,0.00,,,0.46,1.000000,,2013-09-30 12:52:00,
2013-09-30 08:01:00,64.0,64.0,-100.00,SE,134,1.0,3.0,100,0.00,,,0.46,1.000000,,2013-09-30 13:01:00,
2013-09-30 08:42:00,64.0,64.0,-100.00,SE,145,2.0,4.0,100,0.00,,,0.41,13.000000,,2013-09-30 13:42:00,
2013-09-30 08:52:00,64.0,64.0,-100.00,SE,145,2.0,4.0,100,0.00,,,0.41,13.000000,,2013-09-30 13:52:00,
2013-09-30 09:02:00,64.0,64.0,-100.00,SE,145,2.0,4.0,100,0.00,,,0.41,13.000000,,2013-09-30 14:02:00,
2013-09-30 09:42:00,65.0,65.0,-100.00,South,171,2.0,4.0,100,0.00,,,0.18,36.000000,,2013-09-30 14:42:00,
2013-09-30 09:53:00,65.0,65.0,-100.00,South,171,2.0,4.0,100,0.00,,,0.18,36.000000,,2013-09-30 14:53:00,
2013-09-30 10:02:00,65.0,65.0,-100.00,South,171,2.0,4.0,100,0.00,,,0.18,36.000000,,2013-09-30 15:02:00,
2013-09-30 10:45:00,65.0,65.0,-100.00,SSE,165,2.0,6.0,100,0.01,,,0.05,58.000000,,2013-09-30 15:45:00,
2013-09-30 10:54:00,65.0,65.0,-100.00,SSE,165,2.0,6.0,100,0.01,,,0.05,58.000000,,2013-09-30 15:54:00,
2013-09-30 11:04:00,65.0,65.0,-100.00,SSE,165,2.0,6.0,100,0.01,,,0.05,58.000000,,2013-09-30 16:04:00,
2013-09-30 11:44:00,65.0,65.0,-100.00,South,173,2.0,5.0,100,0.01,,,0.03,79.000000,,2013-09-30 16:44:00,
2013-09-30 11:53:00,65.0,65.0,-100.00,South,173,2.0,5.0,100,0.01,,,0.03,79.000000,,2013-09-30 16:53:00,
2013-09-30 12:03:00,65.0,65.0,-100.00,South,173,2.0,5.0,100,0.01,,,0.03,79.000000,,2013-09-30 17:03:00,
2013-09-30 12:43:00,66.0,66.0,-100.00,South,171,2.0,10.0,100,0.00,,,0.03,100.000000,,2013-09-30 17:43:00,
2013-09-30 12:53:00,66.0,66.0,-100.00,South,171,2.0,10.0,100,0.00,,,0.03,100.000000,,2013-09-30 17:53:00,
2013-09-30 13:02:00,66.0,66.0,-100.00,South,171,2.0,10.0,100,0.00,,,0.03,100.000000,,2013-09-30 18:02:00,
2013-09-30 13:42:00,67.0,66.0,-100.00,SSE,158,3.0,7.0,98,0.00,,,0.03,128.000000,,2013-09-30 18:42:00,
2013-09-30 13:53:00,67.0,66.0,-100.00,SSE,158,3.0,7.0,98,0.00,,,0.03,128.000000,,2013-09-30 18:53:00,
2013-09-30 14:02:00,67.0,66.0,-100.00,SSE,158,3.0,7.0,98,0.00,,,0.03,128.000000,,2013-09-30 19:02:00,
2013-09-30 14:42:00,67.0,66.0,-100.00,SSE,156,4.0,7.0,95,0.00,,,0.03,174.000000,,2013-09-30 19:42:00,
2013-09-30 14:53:00,67.0,66.0,-100.00,SSE,156,4.0,7.0,95,0.00,,,0.03,174.000000,,2013-09-30 19:53:00,
2013-09-30 15:02:00,67.0,66.0,-100.00,SSE,156,4.0,7.0,95,0.00,,,0.03,174.000000,,2013-09-30 20:02:00,
2013-09-30 15:43:00,68.0,66.0,-100.00,SSE,166,3.0,7.0,93,0.00,,,0.03,177.000000,,2013-09-30 20:43:00,
2013-09-30 15:53:00,68.0,66.0,-100.00,SSE,166,3.0,7.0,93,0.00,,,0.03,177.000000,,2013-09-30 20:53:00,
2013-09-30 16:02:00,68.0,66.0,-100.00,SSE,166,3.0,7.0,93,0.00,,,0.03,177.000000,,2013-09-30 21:02:00,
2013-09-30 16:44:00,67.0,65.0,-100.00,SSE,166,2.0,7.0,94,0.00,,,0.03,85.000000,,2013-09-30 21:44:00,
2013-09-30 16:54:00,67.0,65.0,-100.00,SSE,166,2.0,7.0,94,0.00,,,0.03,85.000000,,2013-09-30 21:54:00,
2013-09-30 17:03:00,67.0,65.0,-100.00,SSE,166,2.0,7.0,94,0.00,,,0.03,85.000000,,2013-09-30 22:03:00,
2013-09-30 17:44:00,68.0,65.0,-100.00,SE,137,1.0,6.0,91,0.00,,,0.03,79.000000,,2013-09-30 22:44:00,
2013-09-30 17:54:00,68.0,65.0,-100.00,SE,137,1.0,6.0,91,0.00,,,0.03,79.000000,,2013-09-30 22:54:00,
2013-09-30 18:03:00,68.0,65.0,-100.00,SE,137,1.0,6.0,91,0.00,,,0.03,79.000000,,2013-09-30 23:03:00,
2013-09-30 18:43:00,68.0,66.0,-100.00,ESE,108,0.0,3.0,94,0.00,,,0.03,39.000000,,2013-09-30 23:43:00,
2013-09-30 18:54:00,68.0,66.0,-100.00,ESE,108,0.0,3.0,94,0.00,,,0.03,39.000000,,2013-09-30 23:54:00,
2013-09-30 19:03:00,68.0,66.0,-100.00,ESE,108,0.0,3.0,94,0.00,,,0.03,39.000000,,2013-10-01 00:03:00,
2013-09-30 19:43:00,66.0,66.0,-100.00,SE,144,0.0,2.0,99,0.00,,,0.03,2.000000,,2013-10-01 00:43:00,
2013-09-30 19:52:00,66.0,66.0,-100.00,SE,144,0.0,2.0,99,0.00,,,0.03,2.000000,,2013-10-01 00:52:00,
2013-09-30 20:03:00,66.0,66.0,-100.00,SE,144,0.0,2.0,99,0.00,,,0.03,2.000000,,2013-10-01 01:03:00,
2013-09-30 20:42:00,66.0,66.0,-100.00,SE,145,1.0,4.0,99,0.00,,,0.03,0.000000,,2013-10-01 01:42:00,
2013-09-30 20:52:00,66.0,66.0,-100.00,SE,145,1.0,4.0,99,0.00,,,0.03,0.000000,,2013-10-01 01:52:00,
2013-09-30 21:02:00,66.0,66.0,-100.00,SE,145,1.0,4.0,99,0.00,,,0.03,0.000000,,2013-10-01 02:02:00,
2013-09-30 21:43:00,66.0,65.0,-100.00,SSE,153,1.0,4.0,98,0.00,,,0.03,0.000000,,2013-10-01 02:43:00,
2013-09-30 21:52:00,66.0,65.0,-100.00,SSE,153,1.0,4.0,98,0.00,,,0.03,0.000000,,2013-10-01 02:52:00,
2013-09-30 22:03:00,66.0,65.0,-100.00,SSE,153,1.0,4.0,98,0.00,,,0.03,0.000000,,2013-10-01 03:03:00,
2013-09-30 22:44:00,66.0,65.0,-100.00,SE,144,0.0,2.0,98,0.00,,,0.03,0.000000,,2013-10-01 03:44:00,
2013-09-30 22:55:00,66.0,65.0,-100.00,SE,144,0.0,2.0,98,0.00,,,0.03,0.000000,,2013-10-01 03:55:00,
2013-09-30 23:04:00,66.0,65.0,-100.00,SE,144,0.0,2.0,98,0.00,,,0.03,0.000000,,2013-10-01 04:04:00,